createdAt,value
2022-12-04T00:00:52.056Z,0.94
2022-12-04T00:01:52.041Z,0.92
2022-12-04T00:02:52.070Z,0.92
2022-12-04T00:03:52.070Z,0.94
2022-12-04T00:04:52.087Z,0.96
2022-12-04T00:05:52.000Z,0.98
2022-12-04T00:06:57.132Z,1.00
2022-12-04T00:07:52.012Z,0.96
2022-12-04T00:08:51.967Z,0.97
2022-12-04T00:09:52.177Z,0.96
2022-12-04T00:10:51.941Z,0.98
2022-12-04T00:11:51.927Z,1.00
2022-12-04T00:12:51.908Z,1.00
2022-12-04T00:13:51.934Z,1.00
2022-12-04T00:15:23.776Z,1.00
2022-12-04T00:15:51.915Z,0.98
2022-12-04T00:16:51.993Z,0.96
2022-12-04T00:17:51.867Z,0.96
2022-12-04T00:18:51.874Z,0.97
2022-12-04T00:19:52.061Z,1.00
2022-12-04T00:20:51.835Z,1.01
2022-12-04T00:21:51.867Z,1.03
2022-12-04T00:22:51.848Z,1.03
2022-12-04T00:23:51.821Z,1.03
2022-12-04T00:24:51.779Z,1.06
2022-12-04T00:25:51.773Z,1.04
2022-12-04T00:26:51.793Z,1.06
2022-12-04T00:27:51.755Z,1.04
2022-12-04T00:28:51.784Z,1.04
2022-12-04T00:29:51.908Z,1.03
2022-12-04T00:30:51.769Z,1.01
2022-12-04T00:31:51.828Z,1.00
2022-12-04T00:32:51.693Z,1.01
2022-12-04T00:33:51.704Z,1.01
2022-12-04T00:34:51.715Z,1.01
2022-12-04T00:35:51.658Z,0.98
2022-12-04T00:36:51.658Z,0.97
2022-12-04T00:37:51.654Z,0.97
2022-12-04T00:38:51.658Z,0.94
2022-12-04T00:39:51.683Z,0.94
2022-12-04T00:40:51.616Z,0.97
2022-12-04T00:41:51.602Z,0.96
2022-12-04T00:42:51.612Z,0.94
2022-12-04T00:43:51.600Z,0.94
2022-12-04T00:44:51.567Z,0.94
2022-12-04T00:45:51.613Z,0.97
2022-12-04T00:46:51.552Z,1.00
2022-12-04T00:47:51.536Z,1.00
2022-12-04T00:48:51.540Z,1.00
2022-12-04T00:49:51.515Z,1.01
2022-12-04T00:50:51.520Z,1.01
2022-12-04T00:51:51.494Z,1.03
2022-12-04T00:52:51.477Z,1.00
2022-12-04T00:53:51.506Z,0.98
2022-12-04T00:54:51.455Z,0.97
2022-12-04T00:55:51.450Z,0.98
2022-12-04T00:56:51.429Z,0.98
2022-12-04T00:57:54.664Z,1.01
2022-12-04T00:58:51.462Z,1.03
2022-12-04T00:59:51.416Z,1.04
2022-12-04T01:00:51.498Z,1.04
2022-12-04T01:01:51.410Z,1.04
2022-12-04T01:02:51.442Z,1.06
2022-12-04T01:03:51.394Z,1.06
2022-12-04T01:04:51.355Z,1.07
2022-12-04T01:05:51.337Z,1.07
2022-12-04T01:06:51.347Z,1.04
2022-12-04T01:07:51.395Z,1.07
2022-12-04T01:08:51.312Z,1.08
2022-12-04T01:09:51.370Z,1.10
2022-12-04T01:10:51.284Z,1.12
2022-12-04T01:11:51.278Z,1.14
2022-12-04T01:12:51.288Z,1.15
2022-12-04T01:13:51.260Z,1.14
2022-12-04T01:14:51.264Z,1.12
2022-12-04T01:15:51.229Z,1.08
2022-12-04T01:16:51.330Z,1.07
2022-12-04T01:17:51.215Z,1.07
2022-12-04T01:18:51.204Z,1.07
2022-12-04T01:19:51.203Z,1.08
2022-12-04T01:20:51.189Z,1.07
2022-12-04T01:21:51.173Z,1.06
2022-12-04T01:22:51.154Z,1.06
2022-12-04T01:23:51.150Z,1.07
2022-12-04T01:24:51.149Z,1.06
2022-12-04T01:25:51.154Z,1.06
2022-12-04T01:26:51.113Z,1.06
2022-12-04T01:27:51.104Z,1.07
2022-12-04T01:28:51.100Z,1.06
2022-12-04T01:29:51.123Z,1.04
2022-12-04T01:30:51.071Z,1.03
2022-12-04T01:31:51.155Z,1.06
2022-12-04T01:32:51.045Z,1.07
2022-12-04T01:33:51.060Z,1.08
2022-12-04T01:34:51.040Z,1.12
2022-12-04T01:35:51.016Z,1.14
2022-12-04T01:36:51.021Z,1.15
2022-12-04T01:37:50.992Z,1.14
2022-12-04T01:38:50.987Z,1.14
2022-12-04T01:39:51.001Z,1.14
2022-12-04T01:40:50.963Z,1.15
2022-12-04T01:41:50.959Z,1.15
2022-12-04T01:42:50.944Z,1.16
2022-12-04T01:43:50.944Z,1.18
2022-12-04T01:44:50.960Z,1.18
2022-12-04T01:45:51.001Z,1.16
2022-12-04T01:46:50.901Z,1.16
2022-12-04T01:47:50.895Z,1.18
2022-12-04T01:48:50.865Z,1.19
2022-12-04T01:49:50.892Z,1.19
2022-12-04T01:50:50.887Z,1.19
2022-12-04T01:51:50.860Z,1.19
2022-12-04T01:52:50.852Z,1.16
2022-12-04T01:53:50.817Z,1.16
2022-12-04T01:54:50.842Z,1.16
2022-12-04T01:55:50.853Z,1.16
2022-12-04T01:56:50.786Z,1.19
2022-12-04T01:57:50.779Z,1.19
2022-12-04T01:58:50.764Z,1.19
2022-12-04T01:59:50.792Z,1.21
2022-12-04T02:00:51.894Z,1.21
2022-12-04T02:01:50.842Z,1.19
2022-12-04T02:02:50.885Z,1.16
2022-12-04T02:03:50.719Z,1.16
2022-12-04T02:04:50.720Z,1.16
2022-12-04T02:05:50.697Z,1.18
2022-12-04T02:06:50.717Z,1.19
2022-12-04T02:07:50.763Z,1.18
2022-12-04T02:08:50.658Z,1.18
2022-12-04T02:09:50.662Z,1.22
2022-12-04T02:10:50.644Z,1.22
2022-12-04T02:11:50.639Z,1.22
2022-12-04T02:12:50.613Z,1.21
2022-12-04T02:13:50.618Z,1.21
2022-12-04T02:14:50.642Z,1.21
2022-12-04T02:15:50.578Z,1.21
2022-12-04T02:16:50.696Z,1.19
2022-12-04T02:17:50.562Z,1.21
2022-12-04T02:18:50.554Z,1.21
2022-12-04T02:19:50.565Z,1.18
2022-12-04T02:20:50.537Z,1.16
2022-12-04T02:21:50.538Z,1.18
2022-12-04T02:22:50.507Z,1.19
2022-12-04T02:23:50.498Z,1.18
2022-12-04T02:24:50.616Z,1.16
2022-12-04T02:25:50.486Z,1.16
2022-12-04T02:26:50.475Z,1.16
2022-12-04T02:27:50.463Z,1.16
2022-12-04T02:28:50.446Z,1.18
2022-12-04T02:29:50.470Z,1.18
2022-12-04T02:30:50.487Z,1.21
2022-12-04T02:31:50.416Z,1.21
2022-12-04T02:32:50.396Z,1.22
2022-12-04T02:33:50.397Z,1.24
2022-12-04T02:34:50.393Z,1.24
2022-12-04T02:35:50.366Z,1.28
2022-12-04T02:36:50.355Z,1.29
2022-12-04T02:37:50.354Z,1.29
2022-12-04T02:38:50.336Z,1.28
2022-12-04T02:39:50.359Z,1.29
2022-12-04T02:40:50.310Z,1.29
2022-12-04T02:41:50.308Z,1.29
2022-12-04T02:42:50.310Z,1.28
2022-12-04T02:43:50.276Z,1.29
2022-12-04T02:44:50.298Z,1.29
2022-12-04T02:45:50.320Z,1.29
2022-12-04T02:46:50.250Z,1.28
2022-12-04T02:47:50.270Z,1.29
2022-12-04T02:48:50.225Z,1.32
2022-12-04T02:49:50.238Z,1.32
2022-12-04T02:50:50.248Z,1.29
2022-12-04T02:51:50.193Z,1.32
2022-12-04T02:52:50.181Z,1.33
2022-12-04T02:53:50.175Z,1.34
2022-12-04T02:54:50.199Z,1.36
2022-12-04T02:55:50.163Z,1.36
2022-12-04T02:56:50.139Z,1.37
2022-12-04T02:57:50.134Z,1.39
2022-12-04T02:58:50.121Z,1.42
2022-12-04T02:59:50.133Z,1.40
2022-12-04T03:00:50.222Z,1.42
2022-12-04T03:01:50.169Z,1.44
2022-12-04T03:02:50.189Z,1.44
2022-12-04T03:03:50.064Z,1.43
2022-12-04T03:04:50.077Z,1.44
2022-12-04T03:05:50.052Z,1.44
2022-12-04T03:06:50.035Z,1.44
2022-12-04T03:07:50.112Z,1.46
2022-12-04T03:08:50.014Z,1.47
2022-12-04T03:09:50.009Z,1.46
2022-12-04T03:10:49.996Z,1.43
2022-12-04T03:11:49.989Z,1.43
2022-12-04T03:12:49.977Z,1.43
2022-12-04T03:13:49.961Z,1.44
2022-12-04T03:14:49.970Z,1.44
2022-12-04T03:15:49.935Z,1.43
2022-12-04T03:16:49.958Z,1.46
2022-12-04T03:17:49.956Z,1.47
2022-12-04T03:18:49.904Z,1.50
2022-12-04T03:19:49.907Z,1.50
2022-12-04T03:20:49.892Z,1.50
2022-12-04T03:21:49.873Z,1.52
2022-12-04T03:22:49.870Z,1.51
2022-12-04T03:23:49.889Z,1.51
2022-12-04T03:24:49.853Z,1.52
2022-12-04T03:25:49.841Z,1.50
2022-12-04T03:26:49.848Z,1.50
2022-12-04T03:27:49.811Z,1.50
2022-12-04T03:28:49.828Z,1.47
2022-12-04T03:29:49.834Z,1.47
2022-12-04T03:30:49.861Z,1.47
2022-12-04T03:31:49.776Z,1.47
2022-12-04T03:32:49.751Z,1.50
2022-12-04T03:33:49.754Z,1.47
2022-12-04T03:34:49.764Z,1.47
2022-12-04T03:35:49.718Z,1.47
2022-12-04T03:36:49.712Z,1.46
2022-12-04T03:37:49.732Z,1.47
2022-12-04T03:38:49.687Z,1.44
2022-12-04T03:39:49.692Z,1.43
2022-12-04T03:40:49.667Z,1.43
2022-12-04T03:41:50.221Z,1.44
2022-12-04T03:42:49.688Z,1.42
2022-12-04T03:43:49.679Z,1.44
2022-12-04T03:44:49.647Z,1.43
2022-12-04T03:45:49.691Z,1.46
2022-12-04T03:46:49.639Z,1.44
2022-12-04T03:47:49.595Z,1.46
2022-12-04T03:48:49.584Z,1.46
2022-12-04T03:49:49.580Z,1.46
2022-12-04T03:50:49.553Z,1.50
2022-12-04T03:51:49.556Z,1.50
2022-12-04T03:52:49.545Z,1.47
2022-12-04T03:53:49.524Z,1.46
2022-12-04T03:54:49.551Z,1.46
2022-12-04T03:55:49.521Z,1.47
2022-12-04T03:56:49.495Z,1.50
2022-12-04T03:57:49.485Z,1.51
2022-12-04T03:58:49.470Z,1.52
2022-12-04T03:59:55.237Z,1.52
2022-12-04T04:00:49.485Z,1.52
2022-12-04T04:01:49.592Z,1.52
2022-12-04T04:02:49.492Z,1.54
2022-12-04T04:03:49.431Z,1.54
2022-12-04T04:04:49.413Z,1.52
2022-12-04T04:05:49.427Z,1.52
2022-12-04T04:06:49.395Z,1.55
2022-12-04T04:07:49.421Z,1.54
2022-12-04T04:08:49.379Z,1.54
2022-12-04T04:09:49.352Z,1.55
2022-12-04T04:10:49.359Z,1.55
2022-12-04T04:11:49.360Z,1.55
2022-12-04T04:12:49.330Z,1.54
2022-12-04T04:13:49.309Z,1.54
2022-12-04T04:14:49.303Z,1.52
2022-12-04T04:15:49.365Z,1.52
2022-12-04T04:16:49.277Z,1.52
2022-12-04T04:17:49.302Z,1.52
2022-12-04T04:18:49.258Z,1.52
2022-12-04T04:19:49.243Z,1.54
2022-12-04T04:20:49.251Z,1.55
2022-12-04T04:21:49.234Z,1.55
2022-12-04T04:22:54.460Z,1.55
2022-12-04T04:23:49.211Z,1.54
2022-12-04T04:24:49.198Z,1.54
2022-12-04T04:25:49.205Z,1.54
2022-12-04T04:26:49.177Z,1.51
2022-12-04T04:27:49.195Z,1.54
2022-12-04T04:28:49.151Z,1.52
2022-12-04T04:29:52.544Z,1.52
2022-12-04T04:30:49.183Z,1.52
2022-12-04T04:31:49.123Z,1.50
2022-12-04T04:32:49.124Z,1.52
2022-12-04T04:33:49.094Z,1.52
2022-12-04T04:34:49.118Z,1.54
2022-12-04T04:35:49.098Z,1.54
2022-12-04T04:36:49.059Z,1.52
2022-12-04T04:37:49.065Z,1.52
2022-12-04T04:38:49.045Z,1.51
2022-12-04T04:39:49.042Z,1.52
2022-12-04T04:40:49.034Z,1.52
2022-12-04T04:41:49.005Z,1.52
2022-12-04T04:42:49.031Z,1.54
2022-12-04T04:43:48.995Z,1.55
2022-12-04T04:44:48.994Z,1.57
2022-12-04T04:45:49.010Z,1.57
2022-12-04T04:46:49.005Z,1.58
2022-12-04T04:47:48.969Z,1.60
2022-12-04T04:48:48.929Z,1.60
2022-12-04T04:49:48.922Z,1.60
2022-12-04T04:50:48.944Z,1.58
2022-12-04T04:51:48.903Z,1.58
2022-12-04T04:52:48.892Z,1.57
2022-12-04T04:53:48.891Z,1.57
2022-12-04T04:54:48.866Z,1.57
2022-12-04T04:55:48.880Z,1.58
2022-12-04T04:56:48.846Z,1.58
2022-12-04T04:57:48.845Z,1.58
2022-12-04T04:58:48.827Z,1.57
2022-12-04T04:59:48.815Z,1.55
2022-12-04T05:00:48.825Z,1.52
2022-12-04T05:01:48.847Z,1.54
2022-12-04T05:02:48.880Z,1.52
2022-12-04T05:03:48.785Z,1.54
2022-12-04T05:04:48.760Z,1.55
2022-12-04T05:05:48.759Z,1.54
2022-12-04T05:06:48.739Z,1.51
2022-12-04T05:07:48.765Z,1.52
2022-12-04T05:08:48.713Z,1.54
2022-12-04T05:09:48.714Z,1.52
2022-12-04T05:10:48.711Z,1.52
2022-12-04T05:11:48.691Z,1.54
2022-12-04T05:12:48.666Z,1.54
2022-12-04T05:13:48.695Z,1.55
2022-12-04T05:14:48.683Z,1.54
2022-12-04T05:15:48.691Z,1.54
2022-12-04T05:16:48.638Z,1.54
2022-12-04T05:17:48.623Z,1.52
2022-12-04T05:18:48.636Z,1.54
2022-12-04T05:19:48.598Z,1.55
2022-12-04T05:20:48.609Z,1.55
2022-12-04T05:21:48.603Z,1.55
2022-12-04T05:22:48.560Z,1.55
2022-12-04T05:23:48.555Z,1.54
2022-12-04T05:24:48.555Z,1.54
2022-12-04T05:25:48.543Z,1.54
2022-12-04T05:26:48.521Z,1.55
2022-12-04T05:27:48.526Z,1.55
2022-12-04T05:28:48.502Z,1.55
2022-12-04T05:29:48.498Z,1.57
2022-12-04T05:30:48.507Z,1.55
2022-12-04T05:31:48.523Z,1.57
2022-12-04T05:32:48.458Z,1.57
2022-12-04T05:33:48.448Z,1.55
2022-12-04T05:34:48.496Z,1.55
2022-12-04T05:35:48.442Z,1.55
2022-12-04T05:36:48.421Z,1.54
2022-12-04T05:37:48.411Z,1.54
2022-12-04T05:38:48.394Z,1.55
2022-12-04T05:39:48.385Z,1.55
2022-12-04T05:40:48.395Z,1.55
2022-12-04T05:41:48.361Z,1.57
2022-12-04T05:42:48.355Z,1.55
2022-12-04T05:43:48.338Z,1.57
2022-12-04T05:44:48.326Z,1.55
2022-12-04T05:45:48.334Z,1.57
2022-12-04T05:46:48.403Z,1.57
2022-12-04T05:47:48.298Z,1.58
2022-12-04T05:48:48.287Z,1.58
2022-12-04T05:49:48.289Z,1.58
2022-12-04T05:50:48.285Z,1.58
2022-12-04T05:51:48.255Z,1.58
2022-12-04T05:52:48.234Z,1.58
2022-12-04T05:53:48.251Z,1.60
2022-12-04T05:54:48.234Z,1.60
2022-12-04T05:55:48.229Z,1.60
2022-12-04T05:56:48.203Z,1.62
2022-12-04T05:57:48.209Z,1.61
2022-12-04T05:58:48.180Z,1.61
2022-12-04T05:59:48.164Z,1.61
2022-12-04T06:00:48.234Z,1.61
2022-12-04T06:01:48.216Z,1.62
2022-12-04T06:02:48.183Z,1.62
2022-12-04T06:03:48.152Z,1.62
2022-12-04T06:04:48.147Z,1.65
2022-12-04T06:05:48.123Z,1.64
2022-12-04T06:06:48.093Z,1.62
2022-12-04T06:07:48.156Z,1.64
2022-12-04T06:08:48.074Z,1.62
2022-12-04T06:09:48.082Z,1.62
2022-12-04T06:10:48.063Z,1.64
2022-12-04T06:11:48.041Z,1.64
2022-12-04T06:12:48.058Z,1.65
2022-12-04T06:13:48.019Z,1.69
2022-12-04T06:14:48.008Z,1.68
2022-12-04T06:15:48.013Z,1.68
2022-12-04T06:16:48.087Z,1.68
2022-12-04T06:17:47.974Z,1.68
2022-12-04T06:18:47.965Z,1.69
2022-12-04T06:19:48.008Z,1.71
2022-12-04T06:20:48.019Z,1.72
2022-12-04T06:21:47.933Z,1.71
2022-12-04T06:22:47.915Z,1.72
2022-12-04T06:23:47.937Z,1.71
2022-12-04T06:24:47.899Z,1.72
2022-12-04T06:25:47.904Z,1.69
2022-12-04T06:27:25.097Z,1.71
2022-12-04T06:27:47.884Z,1.68
2022-12-04T06:28:47.864Z,1.71
2022-12-04T06:29:47.858Z,1.71
2022-12-04T06:30:47.843Z,1.72
2022-12-04T06:31:47.925Z,1.72
2022-12-04T06:32:47.811Z,1.73
2022-12-04T06:33:47.808Z,1.73
2022-12-04T06:34:47.788Z,1.73
2022-12-04T06:35:47.850Z,1.73
2022-12-04T06:36:47.770Z,1.75
2022-12-04T06:37:47.777Z,1.76
2022-12-04T06:38:47.744Z,1.75
2022-12-04T06:39:47.763Z,1.73
2022-12-04T06:40:47.738Z,1.72
2022-12-04T06:41:47.831Z,1.72
2022-12-04T06:42:47.740Z,1.73
2022-12-04T06:43:47.698Z,1.75
2022-12-04T06:44:47.682Z,1.75
2022-12-04T06:45:47.715Z,1.73
2022-12-04T06:46:49.879Z,1.73
2022-12-04T06:47:47.659Z,1.72
2022-12-04T06:48:47.649Z,1.72
2022-12-04T06:49:47.626Z,1.72
2022-12-04T06:50:47.624Z,1.72
2022-12-04T06:51:47.637Z,1.73
2022-12-04T06:52:47.620Z,1.73
2022-12-04T06:53:47.582Z,1.73
2022-12-04T06:54:47.577Z,1.75
2022-12-04T06:55:47.587Z,1.73
2022-12-04T06:56:47.564Z,1.73
2022-12-04T06:57:47.538Z,1.73
2022-12-04T06:58:47.551Z,1.73
2022-12-04T06:59:47.522Z,1.76
2022-12-04T07:00:47.568Z,1.76
2022-12-04T07:01:47.527Z,1.78
2022-12-04T07:02:47.551Z,1.76
2022-12-04T07:03:51.383Z,1.76
2022-12-04T07:04:47.485Z,1.78
2022-12-04T07:05:47.457Z,1.79
2022-12-04T07:06:47.475Z,1.76
2022-12-04T07:07:47.558Z,1.78
2022-12-04T07:08:47.426Z,1.78
2022-12-04T07:09:47.419Z,1.80
2022-12-04T07:10:47.401Z,1.82
2022-12-04T07:11:47.411Z,1.82
2022-12-04T07:12:47.405Z,1.80
2022-12-04T07:13:47.367Z,1.80
2022-12-04T07:14:47.381Z,1.80
2022-12-04T07:15:47.348Z,1.80
2022-12-04T07:16:47.407Z,1.79
2022-12-04T07:17:47.338Z,1.80
2022-12-04T07:18:47.314Z,1.79
2022-12-04T07:19:47.312Z,1.80
2022-12-04T07:20:47.290Z,1.79
2022-12-04T07:21:47.332Z,1.79
2022-12-04T07:22:47.292Z,1.80
2022-12-04T07:23:47.259Z,1.82
2022-12-04T07:24:48.343Z,1.80
2022-12-04T07:25:47.239Z,1.82
2022-12-04T07:26:47.245Z,1.83
2022-12-04T07:27:47.235Z,1.82
2022-12-04T07:28:47.213Z,1.83
2022-12-04T07:29:47.214Z,1.82
2022-12-04T07:30:47.186Z,1.83
2022-12-04T07:31:47.294Z,1.83
2022-12-04T07:32:47.165Z,1.85
2022-12-04T07:33:47.152Z,1.87
2022-12-04T07:34:47.138Z,1.85
2022-12-04T07:35:47.135Z,1.85
2022-12-04T07:36:47.136Z,1.87
2022-12-04T07:37:47.114Z,1.87
2022-12-04T07:38:47.118Z,1.87
2022-12-04T07:39:47.103Z,1.87
2022-12-04T07:40:47.082Z,1.87
2022-12-04T07:41:47.089Z,1.89
2022-12-04T07:42:47.073Z,1.89
2022-12-04T07:43:47.045Z,1.90
2022-12-04T07:44:47.026Z,1.91
2022-12-04T07:45:47.107Z,1.91
2022-12-04T07:46:47.045Z,1.94
2022-12-04T07:47:47.004Z,1.94
2022-12-04T07:48:47.007Z,1.98
2022-12-04T07:49:46.992Z,1.97
2022-12-04T07:50:46.971Z,1.98
2022-12-04T07:51:46.988Z,1.98
2022-12-04T07:52:46.947Z,1.98
2022-12-04T07:53:46.953Z,1.99
2022-12-04T07:54:48.205Z,1.98
2022-12-04T07:55:46.910Z,1.98
2022-12-04T07:56:46.922Z,1.99
2022-12-04T07:57:46.905Z,1.99
2022-12-04T07:58:46.883Z,1.99
2022-12-04T07:59:46.870Z,2.01
2022-12-04T08:00:46.886Z,2.01
2022-12-04T08:01:46.911Z,2.01
2022-12-04T08:02:46.833Z,2.01
2022-12-04T08:03:48.508Z,2.04
2022-12-04T08:04:46.972Z,2.04
2022-12-04T08:05:46.812Z,2.04
2022-12-04T08:06:46.817Z,2.06
2022-12-04T08:07:46.852Z,2.06
2022-12-04T08:08:46.789Z,2.08
2022-12-04T08:09:46.770Z,2.09
2022-12-04T08:10:46.754Z,2.08
2022-12-04T08:11:46.779Z,2.10
2022-12-04T08:12:46.729Z,2.10
2022-12-04T08:13:46.728Z,2.10
2022-12-04T08:14:46.728Z,2.15
2022-12-04T08:15:46.697Z,2.16
2022-12-04T08:16:51.131Z,2.15
2022-12-04T08:17:46.689Z,2.15
2022-12-04T08:18:47.012Z,2.15
2022-12-04T08:19:46.657Z,2.16
2022-12-04T08:20:46.664Z,2.16
2022-12-04T08:21:46.650Z,2.16
2022-12-04T08:22:46.637Z,2.15
2022-12-04T08:23:46.647Z,2.16
2022-12-04T08:24:46.603Z,2.16
2022-12-04T08:25:46.594Z,2.16
2022-12-04T08:26:46.596Z,2.17
2022-12-04T08:27:47.670Z,2.17
2022-12-04T08:28:46.560Z,2.17
2022-12-04T08:29:46.549Z,2.19
2022-12-04T08:30:46.603Z,2.22
2022-12-04T08:31:46.544Z,2.22
2022-12-04T08:32:46.513Z,2.20
2022-12-04T08:33:46.523Z,2.23
2022-12-04T08:34:49.789Z,2.23
2022-12-04T08:35:46.498Z,2.23
2022-12-04T08:36:46.485Z,2.27
2022-12-04T08:37:46.473Z,2.27
2022-12-04T08:38:46.465Z,2.28
2022-12-04T08:39:46.437Z,2.28
2022-12-04T08:40:46.486Z,2.28
2022-12-04T08:41:46.441Z,2.28
2022-12-04T08:42:46.404Z,2.30
2022-12-04T08:43:46.405Z,2.33
2022-12-04T08:44:46.384Z,2.34
2022-12-04T08:45:46.447Z,2.35
2022-12-04T08:46:46.449Z,2.34
2022-12-04T08:47:52.114Z,2.34
2022-12-04T08:48:46.368Z,2.35
2022-12-04T08:49:46.332Z,2.35
2022-12-04T08:50:46.326Z,2.38
2022-12-04T08:51:46.329Z,2.38
2022-12-04T08:52:46.315Z,2.38
2022-12-04T08:53:46.291Z,2.38
2022-12-04T08:54:46.277Z,2.38
2022-12-04T08:55:46.268Z,2.41
2022-12-04T08:56:46.275Z,2.41
2022-12-04T08:57:46.245Z,2.44
2022-12-04T08:58:46.235Z,2.44
2022-12-04T08:59:46.233Z,2.45
2022-12-04T09:00:46.287Z,2.45
2022-12-04T09:01:46.250Z,2.48
2022-12-04T09:02:46.191Z,2.48
2022-12-04T09:03:46.200Z,2.48
2022-12-04T09:04:46.197Z,2.49
2022-12-04T09:05:46.155Z,2.52
2022-12-04T09:06:46.202Z,2.53
2022-12-04T09:07:46.170Z,2.53
2022-12-04T09:08:46.135Z,2.55
2022-12-04T09:09:48.405Z,2.55
2022-12-04T09:10:46.097Z,2.58
2022-12-04T09:11:46.130Z,2.58
2022-12-04T09:12:46.086Z,2.59
2022-12-04T09:13:46.083Z,2.59
2022-12-04T09:14:46.058Z,2.61
2022-12-04T09:15:46.072Z,2.64
2022-12-04T09:16:46.064Z,2.64
2022-12-04T09:17:46.042Z,2.66
2022-12-04T09:18:46.020Z,2.66
2022-12-04T09:19:46.023Z,2.67
2022-12-04T09:20:46.006Z,2.67
2022-12-04T09:21:46.009Z,2.67
2022-12-04T09:23:03.577Z,2.70
2022-12-04T09:23:45.990Z,2.70
2022-12-04T09:24:45.951Z,2.70
2022-12-04T09:25:45.950Z,2.70
2022-12-04T09:26:45.959Z,2.71
2022-12-04T09:27:45.928Z,2.73
2022-12-04T09:28:45.934Z,2.74
2022-12-04T09:29:45.902Z,2.76
2022-12-04T09:30:45.991Z,2.77
2022-12-04T09:31:45.952Z,2.79
2022-12-04T09:32:45.874Z,2.81
2022-12-04T09:33:45.890Z,2.82
2022-12-04T09:34:51.073Z,2.81
2022-12-04T09:35:45.845Z,2.82
2022-12-04T09:36:45.836Z,2.84
2022-12-04T09:37:45.811Z,2.84
2022-12-04T09:38:45.807Z,2.85
2022-12-04T09:39:45.803Z,2.87
2022-12-04T09:40:45.788Z,2.88
2022-12-04T09:41:45.785Z,2.88
2022-12-04T09:42:45.769Z,2.89
2022-12-04T09:43:45.753Z,2.89
2022-12-04T09:44:45.738Z,2.91
2022-12-04T09:45:45.737Z,2.94
2022-12-04T09:46:45.841Z,2.95
2022-12-04T09:47:45.708Z,2.98
2022-12-04T09:48:45.697Z,2.95
2022-12-04T09:49:45.692Z,2.97
2022-12-04T09:50:45.683Z,2.98
2022-12-04T09:51:45.705Z,3.00
2022-12-04T09:52:45.657Z,3.02
2022-12-04T09:53:45.641Z,3.03
2022-12-04T09:54:45.646Z,3.03
2022-12-04T09:55:45.634Z,3.06
2022-12-04T09:56:45.617Z,3.07
2022-12-04T09:57:45.602Z,3.07
2022-12-04T09:58:45.594Z,3.09
2022-12-04T09:59:45.584Z,3.10
2022-12-04T10:00:45.571Z,3.10
2022-12-04T10:01:45.634Z,3.13
2022-12-04T10:02:45.688Z,3.13
2022-12-04T10:03:45.685Z,3.15
2022-12-04T10:04:45.524Z,3.18
2022-12-04T10:05:45.552Z,3.16
2022-12-04T10:06:45.520Z,3.18
2022-12-04T10:07:45.528Z,3.20
2022-12-04T10:08:45.485Z,3.20
2022-12-04T10:09:45.489Z,3.20
2022-12-04T10:10:45.459Z,3.20
2022-12-04T10:11:45.464Z,3.21
2022-12-04T10:12:45.439Z,3.23
2022-12-04T10:13:45.446Z,3.21
2022-12-04T10:14:45.414Z,3.24
2022-12-04T10:15:45.438Z,3.24
2022-12-04T10:16:45.441Z,3.27
2022-12-04T10:17:45.388Z,3.28
2022-12-04T10:18:45.373Z,3.28
2022-12-04T10:19:45.372Z,3.30
2022-12-04T10:20:45.385Z,3.30
2022-12-04T10:21:45.359Z,3.28
2022-12-04T10:22:45.330Z,3.27
2022-12-04T10:23:45.315Z,3.30
2022-12-04T10:24:45.330Z,3.30
2022-12-04T10:25:45.295Z,3.30
2022-12-04T10:26:45.323Z,3.31
2022-12-04T10:27:45.265Z,3.34
2022-12-04T10:28:46.617Z,3.36
2022-12-04T10:29:45.245Z,3.36
2022-12-04T10:30:45.374Z,3.34
2022-12-04T10:31:45.312Z,3.36
2022-12-04T10:32:45.257Z,3.33
2022-12-04T10:33:45.219Z,3.33
2022-12-04T10:34:45.993Z,3.33
2022-12-04T10:35:45.196Z,3.30
2022-12-04T10:36:45.191Z,3.30
2022-12-04T10:37:45.184Z,3.31
2022-12-04T10:38:45.156Z,3.33
2022-12-04T10:39:45.147Z,3.31
2022-12-04T10:40:45.138Z,3.31
2022-12-04T10:41:45.151Z,3.33
2022-12-04T10:42:45.115Z,3.33
2022-12-04T10:43:45.122Z,3.33
2022-12-04T10:44:45.087Z,3.34
2022-12-04T10:45:45.084Z,3.36
2022-12-04T10:46:46.619Z,3.34
2022-12-04T10:47:45.060Z,3.36
2022-12-04T10:48:45.048Z,3.36
2022-12-04T10:49:45.051Z,3.39
2022-12-04T10:50:45.028Z,3.42
2022-12-04T10:51:45.026Z,3.42
2022-12-04T10:52:45.069Z,3.42
2022-12-04T10:53:44.990Z,3.44
2022-12-04T10:54:44.983Z,3.44
2022-12-04T10:55:44.969Z,3.44
2022-12-04T10:56:44.980Z,3.46
2022-12-04T10:57:44.966Z,3.44
2022-12-04T10:58:44.933Z,3.46
2022-12-04T10:59:44.917Z,3.46
2022-12-04T11:00:44.917Z,3.47
2022-12-04T11:01:44.993Z,3.46
2022-12-04T11:02:45.013Z,3.44
2022-12-04T11:03:44.992Z,3.44
2022-12-04T11:04:44.884Z,3.44
2022-12-04T11:05:44.916Z,3.42
2022-12-04T11:06:44.845Z,3.43
2022-12-04T11:07:44.915Z,3.44
2022-12-04T11:08:44.831Z,3.46
2022-12-04T11:09:44.829Z,3.46
2022-12-04T11:10:44.802Z,3.46
2022-12-04T11:11:44.797Z,3.44
2022-12-04T11:12:44.807Z,3.46
2022-12-04T11:13:44.784Z,3.44
2022-12-04T11:14:47.226Z,3.43
2022-12-04T11:15:44.850Z,3.44
2022-12-04T11:16:44.928Z,3.46
2022-12-04T11:17:44.751Z,3.47
2022-12-04T11:18:44.740Z,3.46
2022-12-04T11:19:44.708Z,3.49
2022-12-04T11:20:47.003Z,3.49
2022-12-04T11:21:44.691Z,3.50
2022-12-04T11:22:44.716Z,3.50
2022-12-04T11:23:44.660Z,3.49
2022-12-04T11:24:44.651Z,3.49
2022-12-04T11:25:44.652Z,3.50
2022-12-04T11:26:44.629Z,3.47
2022-12-04T11:27:44.653Z,3.49
2022-12-04T11:28:44.609Z,3.50
2022-12-04T11:29:44.612Z,3.52
2022-12-04T11:30:44.592Z,3.53
2022-12-04T11:31:44.631Z,3.53
2022-12-04T11:32:44.592Z,3.52
2022-12-04T11:33:44.576Z,3.53
2022-12-04T11:34:44.535Z,3.53
2022-12-04T11:35:44.538Z,3.54
2022-12-04T11:36:44.530Z,3.53
2022-12-04T11:37:45.593Z,3.53
2022-12-04T11:38:44.506Z,3.53
2022-12-04T11:39:44.498Z,3.53
2022-12-04T11:40:44.507Z,3.54
2022-12-04T11:41:44.482Z,3.57
2022-12-04T11:42:44.514Z,3.54
2022-12-04T11:43:44.441Z,3.57
2022-12-04T11:44:44.434Z,3.54
2022-12-04T11:45:44.428Z,3.54
2022-12-04T11:46:44.505Z,3.53
2022-12-04T11:47:44.415Z,3.57
2022-12-04T11:48:44.450Z,3.57
2022-12-04T11:49:44.381Z,3.57
2022-12-04T11:50:44.392Z,3.58
2022-12-04T11:51:44.354Z,3.58
2022-12-04T11:52:44.382Z,3.58
2022-12-04T11:53:44.371Z,3.57
2022-12-04T11:54:44.345Z,3.57
2022-12-04T11:55:44.316Z,3.57
2022-12-04T11:56:44.342Z,3.58
2022-12-04T11:57:44.315Z,3.58
2022-12-04T11:58:44.292Z,3.60
2022-12-04T11:59:44.279Z,3.60
2022-12-04T12:00:44.268Z,3.58
2022-12-04T12:01:44.382Z,3.60
2022-12-04T12:02:44.362Z,3.61
2022-12-04T12:03:44.329Z,3.61
2022-12-04T12:04:44.220Z,3.61
2022-12-04T12:05:44.250Z,3.64
2022-12-04T12:06:44.200Z,3.65
2022-12-04T12:07:44.242Z,3.64
2022-12-04T12:08:44.171Z,3.67
2022-12-04T12:09:44.175Z,3.67
2022-12-04T12:10:44.929Z,3.65
2022-12-04T12:11:44.197Z,3.67
2022-12-04T12:12:44.145Z,3.70
2022-12-04T12:13:44.125Z,3.68
2022-12-04T12:14:44.106Z,3.70
2022-12-04T12:15:44.095Z,3.71
2022-12-04T12:16:48.338Z,3.75
2022-12-04T12:17:44.140Z,3.72
2022-12-04T12:18:44.064Z,3.76
2022-12-04T12:19:44.083Z,3.76
2022-12-04T12:20:44.054Z,3.78
2022-12-04T12:21:44.035Z,3.79
2022-12-04T12:22:44.038Z,3.80
2022-12-04T12:23:44.032Z,3.80
2022-12-04T12:24:46.829Z,3.82
2022-12-04T12:25:48.784Z,3.82
2022-12-04T12:26:44.027Z,3.82
2022-12-04T12:27:43.982Z,3.82
2022-12-04T12:28:43.958Z,3.82
2022-12-04T12:29:43.963Z,3.80
2022-12-04T12:30:43.932Z,3.83
2022-12-04T12:31:44.004Z,3.83
2022-12-04T12:32:43.924Z,3.82
2022-12-04T12:33:43.917Z,3.82
2022-12-04T12:34:43.909Z,3.80
2022-12-04T12:35:43.892Z,3.80
2022-12-04T12:36:44.170Z,3.80
2022-12-04T12:37:43.879Z,3.80
2022-12-04T12:38:43.864Z,3.80
2022-12-04T12:39:43.844Z,3.80
2022-12-04T12:40:43.850Z,3.80
2022-12-04T12:41:43.821Z,3.80
2022-12-04T12:42:43.907Z,3.80
2022-12-04T12:43:43.935Z,3.79
2022-12-04T12:44:43.827Z,3.80
2022-12-04T12:45:43.849Z,3.80
2022-12-04T12:46:43.771Z,3.80
2022-12-04T12:47:43.782Z,3.79
2022-12-04T12:48:43.746Z,3.80
2022-12-04T12:49:43.731Z,3.82
2022-12-04T12:50:43.717Z,3.83
2022-12-04T12:51:43.720Z,3.83
2022-12-04T12:52:43.708Z,3.83
2022-12-04T12:53:43.681Z,3.80
2022-12-04T12:54:43.686Z,3.80
2022-12-04T12:55:43.696Z,3.80
2022-12-04T12:56:49.317Z,3.82
2022-12-04T12:57:43.681Z,3.82
2022-12-04T12:58:43.634Z,3.83
2022-12-04T12:59:43.631Z,3.83
2022-12-04T13:00:43.615Z,3.85
2022-12-04T13:01:43.709Z,3.86
2022-12-04T13:02:43.652Z,3.86
2022-12-04T13:03:43.591Z,3.86
2022-12-04T13:04:43.575Z,3.86
2022-12-04T13:05:43.612Z,3.88
2022-12-04T13:06:43.543Z,3.89
2022-12-04T13:07:43.632Z,3.90
2022-12-04T13:08:45.009Z,3.90
2022-12-04T13:09:43.572Z,3.92
2022-12-04T13:10:43.512Z,3.94
2022-12-04T13:11:43.513Z,3.97
2022-12-04T13:12:43.488Z,3.97
2022-12-04T13:13:43.494Z,4.00
2022-12-04T13:14:48.673Z,4.00
2022-12-04T13:15:43.477Z,4.01
2022-12-04T13:16:43.488Z,4.01
2022-12-04T13:17:43.505Z,4.01
2022-12-04T13:18:43.417Z,4.03